Terminal Aerodrome Forecast
Issued by NWS Shreveport, LA

Home | Current Version | Previous Version | Text Only | Print | Product List | Glossary On
Versions: 1 2 3 4 5 6 7 8 9 10 11 12 13 14 15 16
000
FTUS44 KSHV 220520
TAFELD
TAF
KELD 220520Z 2206/2306 00000KT P6SM SCT250
      TEMPO 2210/2214 1SM BR VV002
     FM221400 VRB03KT P6SM SCT005
      TEMPO 2214/2216 BKN008
     FM221600 VRB04KT P6SM SCT015
     FM221800 VRB04KT P6SM SCT035 SCT045
     FM230000 VRB03KT P6SM SCT050=

USA.gov is the U.S. government's official web portal to all federal, state and local government web resources and services.